Terminal Aerodrome Forecast
Issued by NWS

Home | Current Version | Previous Version | Text Only | Print | Product List | Glossary On
Versions: 1 2 3 4 5 6 7 8 9 10 11 12 13 14 15 16 17 18 19
000
FTUS41 KGYX 072024 AAA
TAFAUG
TAF AMD
KAUG 072024Z 0720/0818 18011G23KT P6SM BKN015 BKN025
     FM072300 17010KT 5SM -SHRA BR OVC012
     FM080100 18010KT 3SM -SHRA BR OVC007
     FM080300 18008KT 1/2SM FG OVC002
     FM081200 23006KT 4SM BR OVC003
     FM081400 27008KT P6SM OVC015=

USA.gov is the U.S. government's official web portal to all federal, state and local government web resources and services.